sensor_id;sensor_type;location;lat;lon;timestamp;P1;durP1;ratioP1;P2;durP2;ratioP2
37288;SDS011;23174;49.462;11.000;2023-05-21T00:01:33;8.93;;;7.00;;
37288;SDS011;23174;49.462;11.000;2023-05-21T00:03:34;6.80;;;5.88;;
37288;SDS011;23174;49.462;11.000;2023-05-21T00:05:34;7.85;;;7.10;;
37288;SDS011;23174;49.462;11.000;2023-05-21T00:07:36;7.38;;;6.47;;
37288;SDS011;23174;49.462;11.000;2023-05-21T00:09:36;7.30;;;6.63;;
37288;SDS011;23174;49.462;11.000;2023-05-21T00:11:37;7.78;;;7.00;;
37288;SDS011;23174;49.462;11.000;2023-05-21T00:13:37;7.40;;;6.65;;
37288;SDS011;23174;49.462;11.000;2023-05-21T00:15:38;7.32;;;6.72;;
37288;SDS011;23174;49.462;11.000;2023-05-21T00:17:38;8.18;;;7.10;;
37288;SDS011;23174;49.462;11.000;2023-05-21T00:19:39;7.80;;;6.75;;
37288;SDS011;23174;49.462;11.000;2023-05-21T00:21:39;7.40;;;6.68;;
37288;SDS011;23174;49.462;11.000;2023-05-21T00:23:40;7.35;;;6.63;;
37288;SDS011;23174;49.462;11.000;2023-05-21T00:25:41;7.47;;;6.38;;
37288;SDS011;23174;49.462;11.000;2023-05-21T00:27:42;8.50;;;7.70;;
37288;SDS011;23174;49.462;11.000;2023-05-21T00:29:42;7.47;;;6.50;;
37288;SDS011;23174;49.462;11.000;2023-05-21T00:31:43;8.15;;;6.88;;
37288;SDS011;23174;49.462;11.000;2023-05-21T00:33:43;7.22;;;6.65;;
37288;SDS011;23174;49.462;11.000;2023-05-21T00:35:44;9.25;;;7.00;;
37288;SDS011;23174;49.462;11.000;2023-05-21T00:37:45;7.93;;;6.43;;
37288;SDS011;23174;49.462;11.000;2023-05-21T00:39:46;7.40;;;6.70;;
37288;SDS011;23174;49.462;11.000;2023-05-21T00:41:47;7.38;;;6.55;;
37288;SDS011;23174;49.462;11.000;2023-05-21T00:43:47;7.50;;;6.80;;
37288;SDS011;23174;49.462;11.000;2023-05-21T00:45:48;8.13;;;7.40;;
37288;SDS011;23174;49.462;11.000;2023-05-21T00:47:48;8.38;;;7.00;;
37288;SDS011;23174;49.462;11.000;2023-05-21T00:49:53;6.95;;;6.35;;
37288;SDS011;23174;49.462;11.000;2023-05-21T00:51:54;10.02;;;6.82;;
37288;SDS011;23174;49.462;11.000;2023-05-21T00:53:54;7.38;;;6.68;;
37288;SDS011;23174;49.462;11.000;2023-05-21T00:55:56;7.28;;;6.68;;
37288;SDS011;23174;49.462;11.000;2023-05-21T00:57:57;7.03;;;6.43;;
37288;SDS011;23174;49.462;11.000;2023-05-21T00:59:57;6.70;;;6.10;;
37288;SDS011;23174;49.462;11.000;2023-05-21T01:01:58;7.90;;;6.13;;
37288;SDS011;23174;49.462;11.000;2023-05-21T01:04:03;3.75;;;2.83;;
37288;SDS011;23174;49.462;11.000;2023-05-21T01:06:04;3.50;;;2.50;;
37288;SDS011;23174;49.462;11.000;2023-05-21T01:08:05;5.55;;;3.08;;
37288;SDS011;23174;49.462;11.000;2023-05-21T01:10:07;4.20;;;3.88;;
37288;SDS011;23174;49.462;11.000;2023-05-21T01:12:08;4.68;;;3.40;;
37288;SDS011;23174;49.462;11.000;2023-05-21T01:14:11;5.30;;;3.92;;
37288;SDS011;23174;49.462;11.000;2023-05-21T01:16:13;2.20;;;1.65;;
37288;SDS011;23174;49.462;11.000;2023-05-21T01:18:14;0.77;;;0.77;;
37288;SDS011;23174;49.462;11.000;2023-05-21T01:20:15;4.38;;;1.65;;
37288;SDS011;23174;49.462;11.000;2023-05-21T01:22:17;1.60;;;1.50;;
37288;SDS011;23174;49.462;11.000;2023-05-21T01:24:20;2.47;;;1.42;;
37288;SDS011;23174;49.462;11.000;2023-05-21T01:26:21;3.53;;;3.22;;
37288;SDS011;23174;49.462;11.000;2023-05-21T01:28:24;4.22;;;3.22;;
37288;SDS011;23174;49.462;11.000;2023-05-21T01:30:25;4.15;;;2.97;;
37288;SDS011;23174;49.462;11.000;2023-05-21T01:32:33;4.28;;;1.85;;
37288;SDS011;23174;49.462;11.000;2023-05-21T01:35:00;2.90;;;2.47;;
37288;SDS011;23174;49.462;11.000;2023-05-21T01:37:09;2.67;;;2.47;;
37288;SDS011;23174;49.462;11.000;2023-05-21T01:39:22;2.40;;;2.17;;
37288;SDS011;23174;49.462;11.000;2023-05-21T01:41:32;1.20;;;1.17;;
37288;SDS011;23174;49.462;11.000;2023-05-21T01:43:38;3.78;;;2.67;;
37288;SDS011;23174;49.462;11.000;2023-05-21T01:45:41;3.38;;;2.00;;
37288;SDS011;23174;49.462;11.000;2023-05-21T01:47:44;1.38;;;1.27;;
37288;SDS011;23174;49.462;11.000;2023-05-21T01:49:48;0.98;;;0.93;;
37288;SDS011;23174;49.462;11.000;2023-05-21T01:51:53;2.22;;;2.03;;
37288;SDS011;23174;49.462;11.000;2023-05-21T01:53:54;5.30;;;3.75;;
37288;SDS011;23174;49.462;11.000;2023-05-21T01:55:55;5.35;;;4.72;;
37288;SDS011;23174;49.462;11.000;2023-05-21T01:57:55;5.93;;;5.40;;
37288;SDS011;23174;49.462;11.000;2023-05-21T01:59:56;13.95;;;6.10;;
37288;SDS011;23174;49.462;11.000;2023-05-21T02:01:57;6.25;;;5.70;;
37288;SDS011;23174;49.462;11.000;2023-05-21T02:03:58;7.05;;;6.25;;
37288;SDS011;23174;49.462;11.000;2023-05-21T02:05:58;7.43;;;6.72;;
37288;SDS011;23174;49.462;11.000;2023-05-21T02:07:59;7.50;;;6.80;;
37288;SDS011;23174;49.462;11.000;2023-05-21T02:10:00;7.25;;;6.65;;
37288;SDS011;23174;49.462;11.000;2023-05-21T02:12:01;7.35;;;6.65;;
37288;SDS011;23174;49.462;11.000;2023-05-21T02:14:02;8.20;;;7.32;;
37288;SDS011;23174;49.462;11.000;2023-05-21T02:16:03;8.07;;;7.10;;
37288;SDS011;23174;49.462;11.000;2023-05-21T02:18:04;8.90;;;7.22;;
37288;SDS011;23174;49.462;11.000;2023-05-21T02:20:05;7.22;;;6.68;;
37288;SDS011;23174;49.462;11.000;2023-05-21T02:22:12;7.65;;;6.82;;
37288;SDS011;23174;49.462;11.000;2023-05-21T02:24:13;10.60;;;7.00;;
37288;SDS011;23174;49.462;11.000;2023-05-21T02:26:13;8.15;;;7.38;;
37288;SDS011;23174;49.462;11.000;2023-05-21T02:28:13;7.40;;;6.80;;
37288;SDS011;23174;49.462;11.000;2023-05-21T02:30:14;9.18;;;6.95;;
37288;SDS011;23174;49.462;11.000;2023-05-21T02:32:15;8.55;;;7.75;;
37288;SDS011;23174;49.462;11.000;2023-05-21T02:34:15;9.30;;;6.60;;
37288;SDS011;23174;49.462;11.000;2023-05-21T02:36:16;7.25;;;6.50;;
37288;SDS011;23174;49.462;11.000;2023-05-21T02:38:17;7.03;;;6.53;;
37288;SDS011;23174;49.462;11.000;2023-05-21T02:40:18;7.13;;;6.20;;
37288;SDS011;23174;49.462;11.000;2023-05-21T02:42:19;7.63;;;7.00;;
37288;SDS011;23174;49.462;11.000;2023-05-21T02:44:20;7.78;;;7.10;;
37288;SDS011;23174;49.462;11.000;2023-05-21T02:46:22;9.52;;;6.85;;
37288;SDS011;23174;49.462;11.000;2023-05-21T02:48:23;7.45;;;6.75;;
37288;SDS011;23174;49.462;11.000;2023-05-21T02:50:23;7.88;;;6.95;;
37288;SDS011;23174;49.462;11.000;2023-05-21T02:52:24;7.25;;;6.65;;
37288;SDS011;23174;49.462;11.000;2023-05-21T02:54:24;7.80;;;7.10;;
37288;SDS011;23174;49.462;11.000;2023-05-21T02:56:25;8.20;;;7.50;;
37288;SDS011;23174;49.462;11.000;2023-05-21T02:58:26;7.35;;;6.75;;
37288;SDS011;23174;49.462;11.000;2023-05-21T03:00:26;8.02;;;7.28;;
37288;SDS011;23174;49.462;11.000;2023-05-21T03:02:27;7.53;;;6.82;;
37288;SDS011;23174;49.462;11.000;2023-05-21T03:04:27;7.63;;;6.93;;
37288;SDS011;23174;49.462;11.000;2023-05-21T03:06:28;7.55;;;6.88;;
37288;SDS011;23174;49.462;11.000;2023-05-21T03:08:28;7.70;;;7.07;;
37288;SDS011;23174;49.462;11.000;2023-05-21T03:10:29;7.78;;;7.13;;
37288;SDS011;23174;49.462;11.000;2023-05-21T03:12:29;7.00;;;6.40;;
37288;SDS011;23174;49.462;11.000;2023-05-21T03:14:30;8.25;;;7.45;;
37288;SDS011;23174;49.462;11.000;2023-05-21T03:16:31;8.07;;;7.20;;
37288;SDS011;23174;49.462;11.000;2023-05-21T03:18:33;7.80;;;7.10;;
37288;SDS011;23174;49.462;11.000;2023-05-21T03:20:34;7.28;;;6.68;;
37288;SDS011;23174;49.462;11.000;2023-05-21T03:22:34;7.95;;;7.25;;
37288;SDS011;23174;49.462;11.000;2023-05-21T03:24:36;7.38;;;6.78;;
37288;SDS011;23174;49.462;11.000;2023-05-21T03:26:37;8.55;;;7.72;;
37288;SDS011;23174;49.462;11.000;2023-05-21T03:28:38;7.68;;;6.97;;
37288;SDS011;23174;49.462;11.000;2023-05-21T03:30:38;8.65;;;7.95;;
37288;SDS011;23174;49.462;11.000;2023-05-21T03:32:39;9.75;;;7.35;;
37288;SDS011;23174;49.462;11.000;2023-05-21T03:34:40;7.68;;;7.03;;
37288;SDS011;23174;49.462;11.000;2023-05-21T03:36:40;7.95;;;6.95;;
37288;SDS011;23174;49.462;11.000;2023-05-21T03:38:41;8.07;;;7.45;;
37288;SDS011;23174;49.462;11.000;2023-05-21T03:40:41;8.57;;;7.78;;
37288;SDS011;23174;49.462;11.000;2023-05-21T03:42:42;7.47;;;6.80;;
37288;SDS011;23174;49.462;11.000;2023-05-21T03:44:42;8.57;;;7.68;;
37288;SDS011;23174;49.462;11.000;2023-05-21T03:46:43;8.80;;;7.65;;
37288;SDS011;23174;49.462;11.000;2023-05-21T03:48:44;8.18;;;7.50;;
37288;SDS011;23174;49.462;11.000;2023-05-21T03:50:45;7.93;;;7.30;;
37288;SDS011;23174;49.462;11.000;2023-05-21T03:52:45;8.13;;;7.38;;
37288;SDS011;23174;49.462;11.000;2023-05-21T03:54:46;8.25;;;7.55;;
37288;SDS011;23174;49.462;11.000;2023-05-21T03:56:46;7.50;;;6.88;;
37288;SDS011;23174;49.462;11.000;2023-05-21T03:58:46;7.97;;;7.35;;
37288;SDS011;23174;49.462;11.000;2023-05-21T04:00:47;8.18;;;7.43;;
37288;SDS011;23174;49.462;11.000;2023-05-21T04:02:47;8.65;;;7.78;;
37288;SDS011;23174;49.462;11.000;2023-05-21T04:04:48;8.80;;;8.07;;
37288;SDS011;23174;49.462;11.000;2023-05-21T04:06:50;8.77;;;7.88;;
37288;SDS011;23174;49.462;11.000;2023-05-21T04:08:53;8.65;;;7.85;;
37288;SDS011;23174;49.462;11.000;2023-05-21T04:10:53;7.93;;;7.05;;
37288;SDS011;23174;49.462;11.000;2023-05-21T04:12:54;8.13;;;7.43;;
37288;SDS011;23174;49.462;11.000;2023-05-21T04:14:54;10.32;;;8.25;;
37288;SDS011;23174;49.462;11.000;2023-05-21T04:16:55;8.90;;;7.85;;
37288;SDS011;23174;49.462;11.000;2023-05-21T04:18:55;12.73;;;7.55;;
37288;SDS011;23174;49.462;11.000;2023-05-21T04:20:56;8.63;;;7.70;;
37288;SDS011;23174;49.462;11.000;2023-05-21T04:22:57;12.10;;;7.30;;
37288;SDS011;23174;49.462;11.000;2023-05-21T04:24:58;8.25;;;7.55;;
37288;SDS011;23174;49.462;11.000;2023-05-21T04:26:58;8.88;;;8.18;;
37288;SDS011;23174;49.462;11.000;2023-05-21T04:29:00;9.15;;;7.32;;
37288;SDS011;23174;49.462;11.000;2023-05-21T04:31:03;9.00;;;8.15;;
37288;SDS011;23174;49.462;11.000;2023-05-21T04:33:04;8.30;;;7.47;;
37288;SDS011;23174;49.462;11.000;2023-05-21T04:35:05;8.35;;;7.65;;
37288;SDS011;23174;49.462;11.000;2023-05-21T04:37:06;9.70;;;8.35;;
37288;SDS011;23174;49.462;11.000;2023-05-21T04:39:08;8.98;;;8.07;;
37288;SDS011;23174;49.462;11.000;2023-05-21T04:41:08;9.07;;;8.27;;
37288;SDS011;23174;49.462;11.000;2023-05-21T04:43:11;9.07;;;8.27;;
37288;SDS011;23174;49.462;11.000;2023-05-21T04:45:11;9.15;;;8.35;;
37288;SDS011;23174;49.462;11.000;2023-05-21T04:47:12;9.52;;;8.73;;
37288;SDS011;23174;49.462;11.000;2023-05-21T04:49:13;9.02;;;8.15;;
37288;SDS011;23174;49.462;11.000;2023-05-21T04:51:14;9.20;;;8.30;;
37288;SDS011;23174;49.462;11.000;2023-05-21T04:53:14;8.55;;;7.75;;
37288;SDS011;23174;49.462;11.000;2023-05-21T04:55:15;13.02;;;8.27;;
37288;SDS011;23174;49.462;11.000;2023-05-21T04:57:18;9.02;;;8.30;;
37288;SDS011;23174;49.462;11.000;2023-05-21T04:59:18;9.25;;;8.43;;
37288;SDS011;23174;49.462;11.000;2023-05-21T05:01:20;10.40;;;8.20;;
37288;SDS011;23174;49.462;11.000;2023-05-21T05:03:25;9.10;;;8.20;;
37288;SDS011;23174;49.462;11.000;2023-05-21T05:05:26;8.75;;;8.05;;
37288;SDS011;23174;49.462;11.000;2023-05-21T05:07:26;9.43;;;8.60;;
37288;SDS011;23174;49.462;11.000;2023-05-21T05:09:27;9.13;;;8.13;;
37288;SDS011;23174;49.462;11.000;2023-05-21T05:11:29;9.30;;;8.50;;
37288;SDS011;23174;49.462;11.000;2023-05-21T05:13:29;9.65;;;8.85;;
37288;SDS011;23174;49.462;11.000;2023-05-21T05:15:30;10.23;;;8.38;;
37288;SDS011;23174;49.462;11.000;2023-05-21T05:17:30;9.05;;;8.32;;
37288;SDS011;23174;49.462;11.000;2023-05-21T05:19:31;8.95;;;8.15;;
37288;SDS011;23174;49.462;11.000;2023-05-21T05:21:31;8.43;;;7.68;;
37288;SDS011;23174;49.462;11.000;2023-05-21T05:23:32;8.70;;;8.00;;
37288;SDS011;23174;49.462;11.000;2023-05-21T05:25:32;9.55;;;8.63;;
37288;SDS011;23174;49.462;11.000;2023-05-21T05:27:33;9.15;;;8.32;;
37288;SDS011;23174;49.462;11.000;2023-05-21T05:29:33;9.07;;;8.23;;
37288;SDS011;23174;49.462;11.000;2023-05-21T05:31:34;8.38;;;7.68;;
37288;SDS011;23174;49.462;11.000;2023-05-21T05:33:34;8.52;;;7.72;;
37288;SDS011;23174;49.462;11.000;2023-05-21T05:35:35;8.90;;;8.02;;
37288;SDS011;23174;49.462;11.000;2023-05-21T05:37:35;10.13;;;7.72;;
37288;SDS011;23174;49.462;11.000;2023-05-21T05:39:36;14.02;;;8.63;;
37288;SDS011;23174;49.462;11.000;2023-05-21T05:41:36;9.20;;;8.30;;
37288;SDS011;23174;49.462;11.000;2023-05-21T05:43:37;9.50;;;8.48;;
37288;SDS011;23174;49.462;11.000;2023-05-21T05:45:37;9.50;;;8.60;;
37288;SDS011;23174;49.462;11.000;2023-05-21T05:47:38;9.60;;;8.20;;
37288;SDS011;23174;49.462;11.000;2023-05-21T05:49:38;9.73;;;8.90;;
37288;SDS011;23174;49.462;11.000;2023-05-21T05:51:39;11.98;;;8.55;;
37288;SDS011;23174;49.462;11.000;2023-05-21T05:53:40;9.75;;;8.73;;
37288;SDS011;23174;49.462;11.000;2023-05-21T05:55:40;8.88;;;8.02;;
37288;SDS011;23174;49.462;11.000;2023-05-21T05:57:41;9.25;;;8.45;;
37288;SDS011;23174;49.462;11.000;2023-05-21T05:59:41;10.90;;;8.27;;
37288;SDS011;23174;49.462;11.000;2023-05-21T06:01:42;9.43;;;8.60;;
37288;SDS011;23174;49.462;11.000;2023-05-21T06:03:42;12.98;;;8.68;;
37288;SDS011;23174;49.462;11.000;2023-05-21T06:05:43;9.02;;;8.30;;
37288;SDS011;23174;49.462;11.000;2023-05-21T06:07:44;9.38;;;8.43;;
37288;SDS011;23174;49.462;11.000;2023-05-21T06:09:44;9.43;;;8.35;;
37288;SDS011;23174;49.462;11.000;2023-05-21T06:11:45;8.50;;;7.88;;
37288;SDS011;23174;49.462;11.000;2023-05-21T06:13:45;8.90;;;7.90;;
37288;SDS011;23174;49.462;11.000;2023-05-21T06:15:45;9.35;;;8.48;;
37288;SDS011;23174;49.462;11.000;2023-05-21T06:17:46;8.95;;;8.15;;
37288;SDS011;23174;49.462;11.000;2023-05-21T06:19:46;8.45;;;7.75;;
37288;SDS011;23174;49.462;11.000;2023-05-21T06:21:47;8.52;;;7.85;;
37288;SDS011;23174;49.462;11.000;2023-05-21T06:23:47;8.40;;;7.72;;
37288;SDS011;23174;49.462;11.000;2023-05-21T06:25:48;8.70;;;7.85;;
37288;SDS011;23174;49.462;11.000;2023-05-21T06:27:48;8.35;;;7.57;;
37288;SDS011;23174;49.462;11.000;2023-05-21T06:29:49;8.50;;;7.70;;
37288;SDS011;23174;49.462;11.000;2023-05-21T06:31:50;10.45;;;7.82;;
37288;SDS011;23174;49.462;11.000;2023-05-21T06:33:50;8.02;;;7.32;;
37288;SDS011;23174;49.462;11.000;2023-05-21T06:35:51;7.70;;;7.10;;
37288;SDS011;23174;49.462;11.000;2023-05-21T06:37:51;8.55;;;7.75;;
37288;SDS011;23174;49.462;11.000;2023-05-21T06:39:52;8.40;;;7.80;;
37288;SDS011;23174;49.462;11.000;2023-05-21T06:41:52;11.70;;;7.45;;
37288;SDS011;23174;49.462;11.000;2023-05-21T06:43:53;10.15;;;8.30;;
37288;SDS011;23174;49.462;11.000;2023-05-21T06:45:54;8.80;;;8.07;;
37288;SDS011;23174;49.462;11.000;2023-05-21T06:47:54;8.85;;;7.47;;
37288;SDS011;23174;49.462;11.000;2023-05-21T06:49:55;8.73;;;7.82;;
37288;SDS011;23174;49.462;11.000;2023-05-21T06:51:55;8.15;;;7.53;;
37288;SDS011;23174;49.462;11.000;2023-05-21T06:53:56;9.07;;;8.25;;
37288;SDS011;23174;49.462;11.000;2023-05-21T06:55:56;9.48;;;8.57;;
37288;SDS011;23174;49.462;11.000;2023-05-21T06:57:57;10.32;;;8.80;;
37288;SDS011;23174;49.462;11.000;2023-05-21T06:59:57;8.70;;;7.50;;
37288;SDS011;23174;49.462;11.000;2023-05-21T07:01:58;9.20;;;8.30;;
37288;SDS011;23174;49.462;11.000;2023-05-21T07:03:58;9.27;;;8.48;;
37288;SDS011;23174;49.462;11.000;2023-05-21T07:05:59;8.43;;;7.55;;
37288;SDS011;23174;49.462;11.000;2023-05-21T07:08:00;9.55;;;8.02;;
37288;SDS011;23174;49.462;11.000;2023-05-21T07:10:00;7.88;;;7.25;;
37288;SDS011;23174;49.462;11.000;2023-05-21T07:12:01;8.82;;;8.02;;
37288;SDS011;23174;49.462;11.000;2023-05-21T07:14:02;8.93;;;7.90;;
37288;SDS011;23174;49.462;11.000;2023-05-21T07:16:03;8.07;;;7.38;;
37288;SDS011;23174;49.462;11.000;2023-05-21T07:18:03;10.00;;;8.23;;
37288;SDS011;23174;49.462;11.000;2023-05-21T07:20:04;10.57;;;7.90;;
37288;SDS011;23174;49.462;11.000;2023-05-21T07:22:06;12.93;;;8.68;;
37288;SDS011;23174;49.462;11.000;2023-05-21T07:24:07;8.85;;;7.95;;
37288;SDS011;23174;49.462;11.000;2023-05-21T07:26:08;8.98;;;8.18;;
37288;SDS011;23174;49.462;11.000;2023-05-21T07:28:09;8.90;;;8.10;;
37288;SDS011;23174;49.462;11.000;2023-05-21T07:30:09;8.43;;;7.65;;
37288;SDS011;23174;49.462;11.000;2023-05-21T07:32:10;8.38;;;7.60;;
37288;SDS011;23174;49.462;11.000;2023-05-21T07:34:10;8.27;;;7.50;;
37288;SDS011;23174;49.462;11.000;2023-05-21T07:36:11;8.38;;;7.60;;
37288;SDS011;23174;49.462;11.000;2023-05-21T07:38:11;9.52;;;8.63;;
37288;SDS011;23174;49.462;11.000;2023-05-21T07:40:12;8.52;;;7.68;;
37288;SDS011;23174;49.462;11.000;2023-05-21T07:42:13;9.27;;;8.45;;
37288;SDS011;23174;49.462;11.000;2023-05-21T07:44:13;8.52;;;7.15;;
37288;SDS011;23174;49.462;11.000;2023-05-21T07:46:14;9.57;;;7.53;;
37288;SDS011;23174;49.462;11.000;2023-05-21T07:48:14;8.57;;;7.85;;
37288;SDS011;23174;49.462;11.000;2023-05-21T07:50:15;8.63;;;7.82;;
37288;SDS011;23174;49.462;11.000;2023-05-21T07:52:15;10.30;;;8.18;;
37288;SDS011;23174;49.462;11.000;2023-05-21T07:54:16;8.70;;;7.45;;
37288;SDS011;23174;49.462;11.000;2023-05-21T07:56:17;8.40;;;7.53;;
37288;SDS011;23174;49.462;11.000;2023-05-21T07:58:17;11.60;;;8.57;;
37288;SDS011;23174;49.462;11.000;2023-05-21T08:00:21;8.75;;;7.68;;
37288;SDS011;23174;49.462;11.000;2023-05-21T08:02:22;8.63;;;7.72;;
37288;SDS011;23174;49.462;11.000;2023-05-21T08:04:23;8.38;;;7.57;;
37288;SDS011;23174;49.462;11.000;2023-05-21T08:06:23;8.27;;;7.47;;
37288;SDS011;23174;49.462;11.000;2023-05-21T08:08:24;8.80;;;7.32;;
37288;SDS011;23174;49.462;11.000;2023-05-21T08:10:25;8.85;;;7.68;;
37288;SDS011;23174;49.462;11.000;2023-05-21T08:12:26;8.27;;;7.57;;
37288;SDS011;23174;49.462;11.000;2023-05-21T08:14:26;8.25;;;7.15;;
37288;SDS011;23174;49.462;11.000;2023-05-21T08:16:27;8.32;;;7.53;;
37288;SDS011;23174;49.462;11.000;2023-05-21T08:18:27;8.23;;;7.45;;
37288;SDS011;23174;49.462;11.000;2023-05-21T08:20:28;8.38;;;7.40;;
37288;SDS011;23174;49.462;11.000;2023-05-21T08:22:29;7.57;;;6.90;;
37288;SDS011;23174;49.462;11.000;2023-05-21T08:24:30;9.07;;;7.60;;
37288;SDS011;23174;49.462;11.000;2023-05-21T08:26:31;8.25;;;7.50;;
37288;SDS011;23174;49.462;11.000;2023-05-21T08:28:31;7.90;;;7.25;;
37288;SDS011;23174;49.462;11.000;2023-05-21T08:30:32;7.00;;;6.32;;
37288;SDS011;23174;49.462;11.000;2023-05-21T08:32:32;8.52;;;6.75;;
37288;SDS011;23174;49.462;11.000;2023-05-21T08:34:33;7.05;;;6.55;;
37288;SDS011;23174;49.462;11.000;2023-05-21T08:36:33;7.60;;;6.53;;
37288;SDS011;23174;49.462;11.000;2023-05-21T08:38:34;7.53;;;6.85;;
37288;SDS011;23174;49.462;11.000;2023-05-21T08:40:35;7.70;;;7.00;;
37288;SDS011;23174;49.462;11.000;2023-05-21T08:42:41;7.90;;;7.20;;
37288;SDS011;23174;49.462;11.000;2023-05-21T08:44:44;10.43;;;7.00;;
37288;SDS011;23174;49.462;11.000;2023-05-21T08:46:49;7.30;;;6.70;;
37288;SDS011;23174;49.462;11.000;2023-05-21T08:48:50;9.50;;;7.28;;
37288;SDS011;23174;49.462;11.000;2023-05-21T08:50:54;7.10;;;6.45;;
37288;SDS011;23174;49.462;11.000;2023-05-21T08:52:55;7.40;;;6.75;;
37288;SDS011;23174;49.462;11.000;2023-05-21T08:54:57;7.40;;;6.75;;
37288;SDS011;23174;49.462;11.000;2023-05-21T08:56:58;8.73;;;6.38;;
37288;SDS011;23174;49.462;11.000;2023-05-21T08:59:02;7.15;;;6.65;;
37288;SDS011;23174;49.462;11.000;2023-05-21T09:01:02;7.60;;;6.65;;
37288;SDS011;23174;49.462;11.000;2023-05-21T09:03:04;7.10;;;6.47;;
37288;SDS011;23174;49.462;11.000;2023-05-21T09:05:06;16.60;;;6.85;;
37288;SDS011;23174;49.462;11.000;2023-05-21T09:07:08;6.97;;;6.22;;
37288;SDS011;23174;49.462;11.000;2023-05-21T09:09:22;7.43;;;6.72;;
37288;SDS011;23174;49.462;11.000;2023-05-21T09:11:27;7.22;;;6.68;;
37288;SDS011;23174;49.462;11.000;2023-05-21T09:13:28;6.70;;;6.20;;
37288;SDS011;23174;49.462;11.000;2023-05-21T09:15:32;8.57;;;6.90;;
37288;SDS011;23174;49.462;11.000;2023-05-21T09:17:32;7.07;;;6.35;;
37288;SDS011;23174;49.462;11.000;2023-05-21T09:19:33;6.55;;;5.93;;
37288;SDS011;23174;49.462;11.000;2023-05-21T09:21:33;7.93;;;6.50;;
37288;SDS011;23174;49.462;11.000;2023-05-21T09:23:34;8.15;;;6.80;;
37288;SDS011;23174;49.462;11.000;2023-05-21T09:25:35;7.35;;;6.53;;
37288;SDS011;23174;49.462;11.000;2023-05-21T09:27:37;7.90;;;7.10;;
37288;SDS011;23174;49.462;11.000;2023-05-21T09:29:40;7.03;;;6.30;;
37288;SDS011;23174;49.462;11.000;2023-05-21T09:31:44;7.05;;;6.43;;
37288;SDS011;23174;49.462;11.000;2023-05-21T09:33:45;7.50;;;6.65;;
37288;SDS011;23174;49.462;11.000;2023-05-21T09:35:49;10.93;;;6.82;;
37288;SDS011;23174;49.462;11.000;2023-05-21T09:37:49;7.13;;;6.32;;
37288;SDS011;23174;49.462;11.000;2023-05-21T09:39:51;7.82;;;6.38;;
37288;SDS011;23174;49.462;11.000;2023-05-21T09:41:51;9.25;;;6.78;;
37288;SDS011;23174;49.462;11.000;2023-05-21T09:43:52;10.02;;;6.03;;
37288;SDS011;23174;49.462;11.000;2023-05-21T09:45:58;7.00;;;6.28;;
37288;SDS011;23174;49.462;11.000;2023-05-21T09:47:59;7.07;;;6.47;;
37288;SDS011;23174;49.462;11.000;2023-05-21T09:50:00;6.72;;;6.22;;
37288;SDS011;23174;49.462;11.000;2023-05-21T09:52:00;9.30;;;6.30;;
37288;SDS011;23174;49.462;11.000;2023-05-21T09:54:01;7.85;;;7.05;;
37288;SDS011;23174;49.462;11.000;2023-05-21T09:56:02;10.52;;;6.75;;
37288;SDS011;23174;49.462;11.000;2023-05-21T09:58:04;9.68;;;6.65;;
37288;SDS011;23174;49.462;11.000;2023-05-21T10:00:05;7.05;;;6.45;;
37288;SDS011;23174;49.462;11.000;2023-05-21T10:02:18;7.05;;;6.38;;
37288;SDS011;23174;49.462;11.000;2023-05-21T10:04:19;7.07;;;6.40;;
37288;SDS011;23174;49.462;11.000;2023-05-21T10:06:23;9.15;;;6.40;;
37288;SDS011;23174;49.462;11.000;2023-05-21T10:08:26;7.13;;;6.35;;
37288;SDS011;23174;49.462;11.000;2023-05-21T10:10:30;5.90;;;5.40;;
37288;SDS011;23174;49.462;11.000;2023-05-21T10:12:31;7.13;;;6.53;;
37288;SDS011;23174;49.462;11.000;2023-05-21T10:14:33;9.43;;;6.57;;
37288;SDS011;23174;49.462;11.000;2023-05-21T10:16:35;6.72;;;6.05;;
37288;SDS011;23174;49.462;11.000;2023-05-21T10:18:38;6.25;;;5.75;;
37288;SDS011;23174;49.462;11.000;2023-05-21T10:20:41;6.18;;;5.65;;
37288;SDS011;23174;49.462;11.000;2023-05-21T10:22:42;6.88;;;6.28;;
37288;SDS011;23174;49.462;11.000;2023-05-21T10:24:44;6.72;;;6.10;;
37288;SDS011;23174;49.462;11.000;2023-05-21T10:26:44;6.95;;;6.35;;
37288;SDS011;23174;49.462;11.000;2023-05-21T10:28:47;6.80;;;6.30;;
37288;SDS011;23174;49.462;11.000;2023-05-21T10:30:49;6.82;;;5.75;;
37288;SDS011;23174;49.462;11.000;2023-05-21T10:32:52;6.97;;;6.38;;
37288;SDS011;23174;49.462;11.000;2023-05-21T10:34:54;7.95;;;6.78;;
37288;SDS011;23174;49.462;11.000;2023-05-21T10:36:56;7.05;;;6.45;;
37288;SDS011;23174;49.462;11.000;2023-05-21T10:38:59;7.32;;;6.63;;
37288;SDS011;23174;49.462;11.000;2023-05-21T10:41:01;6.95;;;6.38;;
37288;SDS011;23174;49.462;11.000;2023-05-21T10:43:12;7.53;;;6.82;;
37288;SDS011;23174;49.462;11.000;2023-05-21T10:47:47;7.45;;;6.75;;
37288;SDS011;23174;49.462;11.000;2023-05-21T10:52:29;7.93;;;7.15;;
37288;SDS011;23174;49.462;11.000;2023-05-21T10:55:06;8.35;;;7.30;;
37288;SDS011;23174;49.462;11.000;2023-05-21T10:59:39;8.30;;;7.50;;
37288;SDS011;23174;49.462;11.000;2023-05-21T11:01:47;9.57;;;7.40;;
37288;SDS011;23174;49.462;11.000;2023-05-21T11:03:51;7.50;;;6.90;;
37288;SDS011;23174;49.462;11.000;2023-05-21T11:05:54;9.38;;;6.75;;
37288;SDS011;23174;49.462;11.000;2023-05-21T11:07:56;7.65;;;6.90;;
37288;SDS011;23174;49.462;11.000;2023-05-21T11:10:26;9.45;;;7.35;;
37288;SDS011;23174;49.462;11.000;2023-05-21T11:12:33;8.30;;;7.53;;
37288;SDS011;23174;49.462;11.000;2023-05-21T11:16:44;7.85;;;7.03;;
37288;SDS011;23174;49.462;11.000;2023-05-21T11:20:49;8.63;;;6.68;;
37288;SDS011;23174;49.462;11.000;2023-05-21T11:22:53;7.88;;;7.15;;
37288;SDS011;23174;49.462;11.000;2023-05-21T11:24:54;8.00;;;6.63;;
37288;SDS011;23174;49.462;11.000;2023-05-21T11:27:00;7.18;;;6.45;;
37288;SDS011;23174;49.462;11.000;2023-05-21T11:31:22;7.82;;;6.80;;
37288;SDS011;23174;49.462;11.000;2023-05-21T11:33:24;10.68;;;6.22;;
37288;SDS011;23174;49.462;11.000;2023-05-21T11:35:26;7.13;;;6.32;;
37288;SDS011;23174;49.462;11.000;2023-05-21T11:37:27;7.20;;;5.82;;
37288;SDS011;23174;49.462;11.000;2023-05-21T11:39:29;8.38;;;6.60;;
37288;SDS011;23174;49.462;11.000;2023-05-21T11:44:00;8.65;;;5.70;;
37288;SDS011;23174;49.462;11.000;2023-05-21T11:46:01;8.82;;;5.38;;
37288;SDS011;23174;49.462;11.000;2023-05-21T11:48:02;6.60;;;6.00;;
37288;SDS011;23174;49.462;11.000;2023-05-21T11:50:03;6.15;;;5.55;;
37288;SDS011;23174;49.462;11.000;2023-05-21T11:52:06;7.05;;;5.57;;
37288;SDS011;23174;49.462;11.000;2023-05-21T11:54:08;6.03;;;5.47;;
37288;SDS011;23174;49.462;11.000;2023-05-21T11:56:09;6.00;;;5.50;;
37288;SDS011;23174;49.462;11.000;2023-05-21T11:58:12;5.53;;;5.13;;
37288;SDS011;23174;49.462;11.000;2023-05-21T12:00:14;5.00;;;4.70;;
37288;SDS011;23174;49.462;11.000;2023-05-21T12:02:19;5.65;;;5.15;;
37288;SDS011;23174;49.462;11.000;2023-05-21T12:04:20;11.80;;;5.68;;
37288;SDS011;23174;49.462;11.000;2023-05-21T12:06:25;5.90;;;5.50;;
37288;SDS011;23174;49.462;11.000;2023-05-21T12:08:25;6.43;;;5.82;;
37288;SDS011;23174;49.462;11.000;2023-05-21T12:10:26;6.07;;;5.57;;
37288;SDS011;23174;49.462;11.000;2023-05-21T12:12:26;3.53;;;3.22;;
37288;SDS011;23174;49.462;11.000;2023-05-21T12:14:27;5.35;;;4.85;;
37288;SDS011;23174;49.462;11.000;2023-05-21T12:16:27;5.15;;;4.72;;
37288;SDS011;23174;49.462;11.000;2023-05-21T12:18:28;4.72;;;4.38;;